sensor_id;sensor_type;location;lat;lon;timestamp;P1;durP1;ratioP1;P2;durP2;ratioP2
13014;SDS011;6573;57.696;11.950;2023-05-15T00:00:07;4.70;;;2.97;;
13014;SDS011;6573;57.696;11.950;2023-05-15T00:02:37;4.93;;;3.00;;
13014;SDS011;6573;57.696;11.950;2023-05-15T00:05:07;4.10;;;3.30;;
13014;SDS011;6573;57.696;11.950;2023-05-15T00:07:43;4.67;;;3.20;;
13014;SDS011;6573;57.696;11.950;2023-05-15T00:10:12;8.77;;;3.40;;
13014;SDS011;6573;57.696;11.950;2023-05-15T00:12:42;4.30;;;3.13;;
13014;SDS011;6573;57.696;11.950;2023-05-15T00:15:10;5.50;;;3.50;;
13014;SDS011;6573;57.696;11.950;2023-05-15T00:17:38;3.77;;;3.10;;
13014;SDS011;6573;57.696;11.950;2023-05-15T00:20:09;5.07;;;3.60;;
13014;SDS011;6573;57.696;11.950;2023-05-15T00:22:38;4.27;;;3.33;;
13014;SDS011;6573;57.696;11.950;2023-05-15T00:25:06;4.97;;;3.37;;
13014;SDS011;6573;57.696;11.950;2023-05-15T00:27:35;4.93;;;3.30;;
13014;SDS011;6573;57.696;11.950;2023-05-15T00:30:08;5.93;;;2.97;;
13014;SDS011;6573;57.696;11.950;2023-05-15T00:32:37;3.70;;;3.10;;
13014;SDS011;6573;57.696;11.950;2023-05-15T00:35:06;4.93;;;3.80;;
13014;SDS011;6573;57.696;11.950;2023-05-15T00:37:35;4.30;;;3.63;;
13014;SDS011;6573;57.696;11.950;2023-05-15T00:40:07;5.63;;;3.50;;
13014;SDS011;6573;57.696;11.950;2023-05-15T00:42:44;6.30;;;3.63;;
13014;SDS011;6573;57.696;11.950;2023-05-15T00:45:19;7.93;;;4.30;;
13014;SDS011;6573;57.696;11.950;2023-05-15T00:47:49;7.67;;;4.60;;
13014;SDS011;6573;57.696;11.950;2023-05-15T00:50:20;8.10;;;4.30;;
13014;SDS011;6573;57.696;11.950;2023-05-15T00:52:51;12.33;;;4.47;;
13014;SDS011;6573;57.696;11.950;2023-05-15T00:55:20;7.97;;;4.63;;
13014;SDS011;6573;57.696;11.950;2023-05-15T00:57:50;8.53;;;4.57;;
13014;SDS011;6573;57.696;11.950;2023-05-15T01:00:21;7.93;;;4.40;;
13014;SDS011;6573;57.696;11.950;2023-05-15T01:02:51;13.13;;;4.40;;
13014;SDS011;6573;57.696;11.950;2023-05-15T01:05:20;10.43;;;4.60;;
13014;SDS011;6573;57.696;11.950;2023-05-15T01:07:51;10.43;;;4.40;;
13014;SDS011;6573;57.696;11.950;2023-05-15T01:10:24;5.87;;;4.53;;
13014;SDS011;6573;57.696;11.950;2023-05-15T01:12:53;8.37;;;4.60;;
13014;SDS011;6573;57.696;11.950;2023-05-15T01:15:26;8.97;;;4.60;;
13014;SDS011;6573;57.696;11.950;2023-05-15T01:17:55;8.53;;;4.33;;
13014;SDS011;6573;57.696;11.950;2023-05-15T01:20:24;8.60;;;4.07;;
13014;SDS011;6573;57.696;11.950;2023-05-15T01:22:58;5.20;;;3.90;;
13014;SDS011;6573;57.696;11.950;2023-05-15T01:25:43;6.97;;;3.77;;
13014;SDS011;6573;57.696;11.950;2023-05-15T01:28:22;8.70;;;3.67;;
13014;SDS011;6573;57.696;11.950;2023-05-15T01:31:04;6.20;;;3.83;;
13014;SDS011;6573;57.696;11.950;2023-05-15T01:33:38;9.27;;;4.00;;
13014;SDS011;6573;57.696;11.950;2023-05-15T01:36:26;6.70;;;3.53;;
13014;SDS011;6573;57.696;11.950;2023-05-15T01:39:02;6.80;;;3.60;;
13014;SDS011;6573;57.696;11.950;2023-05-15T01:41:34;5.13;;;3.63;;
13014;SDS011;6573;57.696;11.950;2023-05-15T01:44:13;4.60;;;3.30;;
13014;SDS011;6573;57.696;11.950;2023-05-15T01:46:44;6.00;;;3.40;;
13014;SDS011;6573;57.696;11.950;2023-05-15T01:49:16;4.93;;;3.50;;
13014;SDS011;6573;57.696;11.950;2023-05-15T01:51:48;3.97;;;3.17;;
13014;SDS011;6573;57.696;11.950;2023-05-15T01:54:21;5.20;;;3.33;;
13014;SDS011;6573;57.696;11.950;2023-05-15T01:56:50;3.90;;;3.53;;
13014;SDS011;6573;57.696;11.950;2023-05-15T01:59:21;4.87;;;3.20;;
13014;SDS011;6573;57.696;11.950;2023-05-15T02:01:55;4.00;;;3.60;;
13014;SDS011;6573;57.696;11.950;2023-05-15T02:04:26;4.13;;;3.73;;
13014;SDS011;6573;57.696;11.950;2023-05-15T02:06:55;4.77;;;3.10;;
13014;SDS011;6573;57.696;11.950;2023-05-15T02:09:27;4.80;;;3.33;;
13014;SDS011;6573;57.696;11.950;2023-05-15T02:11:55;4.57;;;3.40;;
13014;SDS011;6573;57.696;11.950;2023-05-15T02:14:40;4.07;;;3.60;;
13014;SDS011;6573;57.696;11.950;2023-05-15T02:17:10;4.60;;;2.90;;
13014;SDS011;6573;57.696;11.950;2023-05-15T02:19:38;3.83;;;3.47;;
13014;SDS011;6573;57.696;11.950;2023-05-15T02:22:07;5.30;;;3.30;;
13014;SDS011;6573;57.696;11.950;2023-05-15T02:24:35;7.83;;;3.40;;
13014;SDS011;6573;57.696;11.950;2023-05-15T02:27:07;3.70;;;3.17;;
13014;SDS011;6573;57.696;11.950;2023-05-15T02:29:46;4.87;;;3.57;;
13014;SDS011;6573;57.696;11.950;2023-05-15T02:32:29;5.53;;;3.47;;
13014;SDS011;6573;57.696;11.950;2023-05-15T02:35:05;4.83;;;3.33;;
13014;SDS011;6573;57.696;11.950;2023-05-15T02:37:44;5.53;;;3.30;;
13014;SDS011;6573;57.696;11.950;2023-05-15T02:40:14;4.40;;;3.63;;
13014;SDS011;6573;57.696;11.950;2023-05-15T02:42:44;5.17;;;3.83;;
13014;SDS011;6573;57.696;11.950;2023-05-15T02:45:15;3.60;;;3.23;;
13014;SDS011;6573;57.696;11.950;2023-05-15T02:47:46;5.00;;;3.53;;
13014;SDS011;6573;57.696;11.950;2023-05-15T02:50:17;5.10;;;3.43;;
13014;SDS011;6573;57.696;11.950;2023-05-15T02:52:46;5.47;;;3.30;;
13014;SDS011;6573;57.696;11.950;2023-05-15T02:55:15;6.97;;;3.80;;
13014;SDS011;6573;57.696;11.950;2023-05-15T02:57:44;6.67;;;3.60;;
13014;SDS011;6573;57.696;11.950;2023-05-15T03:00:13;4.83;;;3.77;;
13014;SDS011;6573;57.696;11.950;2023-05-15T03:02:44;4.23;;;3.80;;
13014;SDS011;6573;57.696;11.950;2023-05-15T03:05:13;5.73;;;3.70;;
13014;SDS011;6573;57.696;11.950;2023-05-15T03:07:42;5.17;;;3.47;;
13014;SDS011;6573;57.696;11.950;2023-05-15T03:10:10;5.87;;;3.57;;
13014;SDS011;6573;57.696;11.950;2023-05-15T03:12:38;4.13;;;3.73;;
13014;SDS011;6573;57.696;11.950;2023-05-15T03:15:08;5.47;;;3.77;;
13014;SDS011;6573;57.696;11.950;2023-05-15T03:17:37;4.90;;;4.00;;
13014;SDS011;6573;57.696;11.950;2023-05-15T03:20:07;5.17;;;3.40;;
13014;SDS011;6573;57.696;11.950;2023-05-15T03:22:36;5.70;;;3.80;;
13014;SDS011;6573;57.696;11.950;2023-05-15T03:25:08;5.37;;;3.73;;
13014;SDS011;6573;57.696;11.950;2023-05-15T03:27:37;5.67;;;3.60;;
13014;SDS011;6573;57.696;11.950;2023-05-15T03:30:06;5.43;;;3.83;;
13014;SDS011;6573;57.696;11.950;2023-05-15T03:32:36;5.43;;;3.53;;
13014;SDS011;6573;57.696;11.950;2023-05-15T03:35:11;6.27;;;4.13;;
13014;SDS011;6573;57.696;11.950;2023-05-15T03:37:40;6.27;;;3.53;;
13014;SDS011;6573;57.696;11.950;2023-05-15T03:40:09;8.13;;;4.17;;
13014;SDS011;6573;57.696;11.950;2023-05-15T03:42:38;4.63;;;3.80;;
13014;SDS011;6573;57.696;11.950;2023-05-15T03:45:07;7.47;;;3.90;;
13014;SDS011;6573;57.696;11.950;2023-05-15T03:47:36;6.60;;;4.00;;
13014;SDS011;6573;57.696;11.950;2023-05-15T03:50:05;6.43;;;3.70;;
13014;SDS011;6573;57.696;11.950;2023-05-15T03:52:36;9.80;;;4.20;;
13014;SDS011;6573;57.696;11.950;2023-05-15T03:55:07;6.30;;;4.20;;
13014;SDS011;6573;57.696;11.950;2023-05-15T03:57:36;10.00;;;4.20;;
13014;SDS011;6573;57.696;11.950;2023-05-15T04:00:06;8.80;;;4.20;;
13014;SDS011;6573;57.696;11.950;2023-05-15T04:02:36;13.37;;;4.17;;
13014;SDS011;6573;57.696;11.950;2023-05-15T04:05:09;5.40;;;3.80;;
13014;SDS011;6573;57.696;11.950;2023-05-15T04:07:39;5.33;;;3.97;;
13014;SDS011;6573;57.696;11.950;2023-05-15T04:10:10;5.67;;;4.00;;
13014;SDS011;6573;57.696;11.950;2023-05-15T04:12:39;8.17;;;4.30;;
13014;SDS011;6573;57.696;11.950;2023-05-15T04:15:14;7.40;;;4.33;;
13014;SDS011;6573;57.696;11.950;2023-05-15T04:17:43;4.60;;;4.13;;
13014;SDS011;6573;57.696;11.950;2023-05-15T04:20:16;6.57;;;4.00;;
13014;SDS011;6573;57.696;11.950;2023-05-15T04:22:47;8.33;;;4.33;;
13014;SDS011;6573;57.696;11.950;2023-05-15T04:25:16;8.07;;;4.13;;
13014;SDS011;6573;57.696;11.950;2023-05-15T04:27:45;8.67;;;4.53;;
13014;SDS011;6573;57.696;11.950;2023-05-15T04:30:14;4.93;;;4.30;;
13014;SDS011;6573;57.696;11.950;2023-05-15T04:32:43;7.23;;;4.20;;
13014;SDS011;6573;57.696;11.950;2023-05-15T04:35:13;4.80;;;3.67;;
13014;SDS011;6573;57.696;11.950;2023-05-15T04:37:42;5.03;;;3.80;;
13014;SDS011;6573;57.696;11.950;2023-05-15T04:40:14;5.87;;;4.00;;
13014;SDS011;6573;57.696;11.950;2023-05-15T04:42:42;11.17;;;3.83;;
13014;SDS011;6573;57.696;11.950;2023-05-15T04:45:12;6.73;;;4.43;;
13014;SDS011;6573;57.696;11.950;2023-05-15T04:47:40;10.87;;;4.23;;
13014;SDS011;6573;57.696;11.950;2023-05-15T04:50:09;8.67;;;4.07;;
13014;SDS011;6573;57.696;11.950;2023-05-15T04:52:38;5.80;;;3.70;;
13014;SDS011;6573;57.696;11.950;2023-05-15T04:55:07;4.67;;;3.80;;
13014;SDS011;6573;57.696;11.950;2023-05-15T04:57:37;4.10;;;3.60;;
13014;SDS011;6573;57.696;11.950;2023-05-15T05:00:06;6.10;;;3.77;;
13014;SDS011;6573;57.696;11.950;2023-05-15T05:02:38;7.27;;;3.70;;
13014;SDS011;6573;57.696;11.950;2023-05-15T05:05:07;7.30;;;3.90;;
13014;SDS011;6573;57.696;11.950;2023-05-15T05:07:35;9.20;;;4.13;;
13014;SDS011;6573;57.696;11.950;2023-05-15T05:10:04;9.03;;;4.00;;
13014;SDS011;6573;57.696;11.950;2023-05-15T05:12:34;10.30;;;4.50;;
13014;SDS011;6573;57.696;11.950;2023-05-15T05:15:04;6.43;;;3.87;;
13014;SDS011;6573;57.696;11.950;2023-05-15T05:17:36;7.33;;;3.80;;
13014;SDS011;6573;57.696;11.950;2023-05-15T05:20:06;6.67;;;3.63;;
13014;SDS011;6573;57.696;11.950;2023-05-15T05:22:38;8.00;;;4.13;;
13014;SDS011;6573;57.696;11.950;2023-05-15T05:25:08;4.67;;;3.77;;
13014;SDS011;6573;57.696;11.950;2023-05-15T05:27:36;6.07;;;3.90;;
13014;SDS011;6573;57.696;11.950;2023-05-15T05:30:07;6.53;;;3.70;;
13014;SDS011;6573;57.696;11.950;2023-05-15T05:32:42;6.50;;;4.50;;
13014;SDS011;6573;57.696;11.950;2023-05-15T05:35:11;8.60;;;4.17;;
13014;SDS011;6573;57.696;11.950;2023-05-15T05:37:39;6.17;;;3.57;;
13014;SDS011;6573;57.696;11.950;2023-05-15T05:40:08;11.87;;;3.90;;
13014;SDS011;6573;57.696;11.950;2023-05-15T05:42:37;12.27;;;4.73;;
13014;SDS011;6573;57.696;11.950;2023-05-15T05:45:07;6.77;;;4.20;;
13014;SDS011;6573;57.696;11.950;2023-05-15T05:47:36;7.10;;;4.10;;
13014;SDS011;6573;57.696;11.950;2023-05-15T05:50:08;14.83;;;4.97;;
13014;SDS011;6573;57.696;11.950;2023-05-15T05:52:37;12.70;;;4.23;;
13014;SDS011;6573;57.696;11.950;2023-05-15T05:55:06;9.20;;;4.40;;
13014;SDS011;6573;57.696;11.950;2023-05-15T05:57:34;6.07;;;3.70;;
13014;SDS011;6573;57.696;11.950;2023-05-15T06:00:03;8.63;;;4.23;;
13014;SDS011;6573;57.696;11.950;2023-05-15T06:02:36;9.07;;;4.53;;
13014;SDS011;6573;57.696;11.950;2023-05-15T06:05:05;8.00;;;4.03;;
13014;SDS011;6573;57.696;11.950;2023-05-15T06:07:34;11.27;;;4.33;;
13014;SDS011;6573;57.696;11.950;2023-05-15T06:10:03;12.40;;;4.17;;
13014;SDS011;6573;57.696;11.950;2023-05-15T06:12:32;11.47;;;4.73;;
13014;SDS011;6573;57.696;11.950;2023-05-15T06:15:01;4.97;;;3.50;;
13014;SDS011;6573;57.696;11.950;2023-05-15T06:17:29;8.63;;;3.87;;
13014;SDS011;6573;57.696;11.950;2023-05-15T06:19:59;5.23;;;3.50;;
13014;SDS011;6573;57.696;11.950;2023-05-15T06:22:32;7.80;;;3.40;;
13014;SDS011;6573;57.696;11.950;2023-05-15T06:25:01;10.80;;;4.20;;
13014;SDS011;6573;57.696;11.950;2023-05-15T06:27:30;11.27;;;4.17;;
13014;SDS011;6573;57.696;11.950;2023-05-15T06:29:58;5.57;;;3.43;;
13014;SDS011;6573;57.696;11.950;2023-05-15T06:32:27;6.23;;;3.67;;
13014;SDS011;6573;57.696;11.950;2023-05-15T06:35:04;5.60;;;3.63;;
13014;SDS011;6573;57.696;11.950;2023-05-15T06:37:33;14.03;;;4.10;;
13014;SDS011;6573;57.696;11.950;2023-05-15T06:40:03;12.60;;;4.90;;
13014;SDS011;6573;57.696;11.950;2023-05-15T06:42:32;7.80;;;3.73;;
13014;SDS011;6573;57.696;11.950;2023-05-15T06:45:01;9.37;;;3.60;;
13014;SDS011;6573;57.696;11.950;2023-05-15T06:47:33;7.60;;;3.83;;
13014;SDS011;6573;57.696;11.950;2023-05-15T06:50:02;8.67;;;3.70;;
13014;SDS011;6573;57.696;11.950;2023-05-15T06:52:32;6.70;;;3.67;;
13014;SDS011;6573;57.696;11.950;2023-05-15T06:55:00;6.50;;;3.87;;
13014;SDS011;6573;57.696;11.950;2023-05-15T06:57:28;5.70;;;3.70;;
13014;SDS011;6573;57.696;11.950;2023-05-15T06:59:57;7.67;;;3.83;;
13014;SDS011;6573;57.696;11.950;2023-05-15T07:02:25;9.60;;;3.63;;
13014;SDS011;6573;57.696;11.950;2023-05-15T07:04:54;8.60;;;3.57;;
13014;SDS011;6573;57.696;11.950;2023-05-15T07:07:24;7.07;;;3.43;;
13014;SDS011;6573;57.696;11.950;2023-05-15T07:09:52;10.53;;;3.27;;
13014;SDS011;6573;57.696;11.950;2023-05-15T07:12:20;6.43;;;3.77;;
13014;SDS011;6573;57.696;11.950;2023-05-15T07:14:49;6.43;;;3.40;;
13014;SDS011;6573;57.696;11.950;2023-05-15T07:17:18;7.90;;;3.83;;
13014;SDS011;6573;57.696;11.950;2023-05-15T07:19:46;6.23;;;3.57;;
13014;SDS011;6573;57.696;11.950;2023-05-15T07:22:14;9.60;;;3.93;;
13014;SDS011;6573;57.696;11.950;2023-05-15T07:24:48;6.67;;;3.70;;
13014;SDS011;6573;57.696;11.950;2023-05-15T07:27:16;7.47;;;3.47;;
13014;SDS011;6573;57.696;11.950;2023-05-15T07:29:44;7.03;;;3.40;;
13014;SDS011;6573;57.696;11.950;2023-05-15T07:32:12;9.73;;;3.70;;
13014;SDS011;6573;57.696;11.950;2023-05-15T07:34:44;9.83;;;3.70;;
13014;SDS011;6573;57.696;11.950;2023-05-15T07:37:12;12.60;;;3.90;;
13014;SDS011;6573;57.696;11.950;2023-05-15T07:39:42;6.90;;;4.63;;
13014;SDS011;6573;57.696;11.950;2023-05-15T07:42:13;7.57;;;4.00;;
13014;SDS011;6573;57.696;11.950;2023-05-15T07:44:44;8.63;;;3.60;;
13014;SDS011;6573;57.696;11.950;2023-05-15T07:47:15;9.87;;;3.57;;
13014;SDS011;6573;57.696;11.950;2023-05-15T07:49:44;6.57;;;3.43;;
13014;SDS011;6573;57.696;11.950;2023-05-15T07:52:15;5.70;;;3.33;;
13014;SDS011;6573;57.696;11.950;2023-05-15T07:54:43;7.73;;;3.90;;
13014;SDS011;6573;57.696;11.950;2023-05-15T07:57:14;8.73;;;3.53;;
13014;SDS011;6573;57.696;11.950;2023-05-15T07:59:43;6.97;;;3.30;;
13014;SDS011;6573;57.696;11.950;2023-05-15T08:02:12;5.60;;;3.67;;
13014;SDS011;6573;57.696;11.950;2023-05-15T08:04:40;6.87;;;3.60;;
13014;SDS011;6573;57.696;11.950;2023-05-15T08:07:08;10.93;;;4.23;;
13014;SDS011;6573;57.696;11.950;2023-05-15T08:09:37;8.03;;;3.80;;
13014;SDS011;6573;57.696;11.950;2023-05-15T08:12:17;6.00;;;3.60;;
13014;SDS011;6573;57.696;11.950;2023-05-15T08:14:47;10.30;;;3.63;;
13014;SDS011;6573;57.696;11.950;2023-05-15T08:17:19;6.67;;;3.50;;
13014;SDS011;6573;57.696;11.950;2023-05-15T08:19:48;8.53;;;3.70;;
13014;SDS011;6573;57.696;11.950;2023-05-15T08:22:19;7.43;;;4.03;;
13014;SDS011;6573;57.696;11.950;2023-05-15T08:24:48;8.43;;;3.80;;
13014;SDS011;6573;57.696;11.950;2023-05-15T08:27:17;9.03;;;4.10;;
13014;SDS011;6573;57.696;11.950;2023-05-15T08:29:45;9.27;;;3.63;;
13014;SDS011;6573;57.696;11.950;2023-05-15T08:32:14;12.13;;;3.90;;
13014;SDS011;6573;57.696;11.950;2023-05-15T08:34:42;5.33;;;3.70;;
13014;SDS011;6573;57.696;11.950;2023-05-15T08:37:11;9.40;;;3.83;;
13014;SDS011;6573;57.696;11.950;2023-05-15T08:39:39;10.50;;;3.77;;
13014;SDS011;6573;57.696;11.950;2023-05-15T08:42:09;26.17;;;5.50;;
13014;SDS011;6573;57.696;11.950;2023-05-15T08:44:48;22.07;;;4.90;;
13014;SDS011;6573;57.696;11.950;2023-05-15T08:47:17;8.97;;;3.90;;
13014;SDS011;6573;57.696;11.950;2023-05-15T08:49:50;11.03;;;3.73;;
13014;SDS011;6573;57.696;11.950;2023-05-15T08:52:27;12.17;;;4.80;;
13014;SDS011;6573;57.696;11.950;2023-05-15T08:54:55;6.80;;;3.80;;
13014;SDS011;6573;57.696;11.950;2023-05-15T08:57:25;10.93;;;3.90;;
13014;SDS011;6573;57.696;11.950;2023-05-15T08:59:57;9.13;;;3.80;;
13014;SDS011;6573;57.696;11.950;2023-05-15T09:02:26;6.77;;;3.57;;
13014;SDS011;6573;57.696;11.950;2023-05-15T09:04:57;7.57;;;3.60;;
13014;SDS011;6573;57.696;11.950;2023-05-15T09:07:26;6.93;;;3.87;;
13014;SDS011;6573;57.696;11.950;2023-05-15T09:09:58;10.40;;;4.10;;
13014;SDS011;6573;57.696;11.950;2023-05-15T09:12:29;6.10;;;3.80;;
13014;SDS011;6573;57.696;11.950;2023-05-15T09:15:08;9.17;;;3.50;;
13014;SDS011;6573;57.696;11.950;2023-05-15T09:17:38;7.63;;;3.80;;
13014;SDS011;6573;57.696;11.950;2023-05-15T09:20:23;11.57;;;3.60;;
13014;SDS011;6573;57.696;11.950;2023-05-15T09:22:53;8.83;;;3.60;;
13014;SDS011;6573;57.696;11.950;2023-05-15T09:25:31;5.90;;;3.57;;
13014;SDS011;6573;57.696;11.950;2023-05-15T09:28:01;11.60;;;3.60;;
13014;SDS011;6573;57.696;11.950;2023-05-15T09:30:34;5.40;;;3.70;;
13014;SDS011;6573;57.696;11.950;2023-05-15T09:33:04;4.87;;;3.53;;
13014;SDS011;6573;57.696;11.950;2023-05-15T09:35:34;7.27;;;3.17;;
13014;SDS011;6573;57.696;11.950;2023-05-15T09:38:03;10.67;;;3.47;;
13014;SDS011;6573;57.696;11.950;2023-05-15T09:40:35;7.10;;;3.43;;
13014;SDS011;6573;57.696;11.950;2023-05-15T09:43:08;6.53;;;3.67;;
13014;SDS011;6573;57.696;11.950;2023-05-15T09:45:38;5.27;;;3.40;;
13014;SDS011;6573;57.696;11.950;2023-05-15T09:48:07;6.90;;;3.40;;
13014;SDS011;6573;57.696;11.950;2023-05-15T09:50:38;6.53;;;3.40;;
13014;SDS011;6573;57.696;11.950;2023-05-15T09:53:06;4.83;;;3.13;;
13014;SDS011;6573;57.696;11.950;2023-05-15T09:55:40;6.70;;;3.47;;
13014;SDS011;6573;57.696;11.950;2023-05-15T09:58:11;6.30;;;3.50;;
13014;SDS011;6573;57.696;11.950;2023-05-15T10:00:42;3.73;;;3.13;;
13014;SDS011;6573;57.696;11.950;2023-05-15T10:03:15;10.00;;;3.33;;
13014;SDS011;6573;57.696;11.950;2023-05-15T10:05:44;7.27;;;3.47;;
13014;SDS011;6573;57.696;11.950;2023-05-15T10:08:13;27.63;;;5.40;;
13014;SDS011;6573;57.696;11.950;2023-05-15T10:10:41;6.87;;;3.47;;
13014;SDS011;6573;57.696;11.950;2023-05-15T10:13:10;7.07;;;3.60;;
13014;SDS011;6573;57.696;11.950;2023-05-15T10:15:42;4.00;;;3.03;;
13014;SDS011;6573;57.696;11.950;2023-05-15T10:18:15;4.97;;;3.23;;
13014;SDS011;6573;57.696;11.950;2023-05-15T10:20:48;10.37;;;3.33;;
13014;SDS011;6573;57.696;11.950;2023-05-15T10:23:17;8.53;;;3.53;;
13014;SDS011;6573;57.696;11.950;2023-05-15T10:25:48;5.57;;;3.63;;
13014;SDS011;6573;57.696;11.950;2023-05-15T10:28:22;5.77;;;3.67;;
13014;SDS011;6573;57.696;11.950;2023-05-15T10:30:53;8.53;;;3.53;;
13014;SDS011;6573;57.696;11.950;2023-05-15T10:33:28;4.70;;;3.30;;
13014;SDS011;6573;57.696;11.950;2023-05-15T10:35:57;6.23;;;3.60;;
13014;SDS011;6573;57.696;11.950;2023-05-15T10:38:26;5.50;;;3.60;;
13014;SDS011;6573;57.696;11.950;2023-05-15T10:40:58;10.70;;;3.77;;
13014;SDS011;6573;57.696;11.950;2023-05-15T10:43:42;7.13;;;3.57;;
13014;SDS011;6573;57.696;11.950;2023-05-15T10:46:15;11.80;;;3.90;;
13014;SDS011;6573;57.696;11.950;2023-05-15T10:48:44;6.83;;;3.80;;
13014;SDS011;6573;57.696;11.950;2023-05-15T10:51:16;9.30;;;3.50;;
13014;SDS011;6573;57.696;11.950;2023-05-15T10:53:47;8.10;;;3.40;;
13014;SDS011;6573;57.696;11.950;2023-05-15T10:56:16;6.83;;;3.53;;
13014;SDS011;6573;57.696;11.950;2023-05-15T10:58:46;6.13;;;3.53;;
13014;SDS011;6573;57.696;11.950;2023-05-15T11:01:26;6.47;;;3.50;;
13014;SDS011;6573;57.696;11.950;2023-05-15T11:04:04;10.50;;;3.50;;
13014;SDS011;6573;57.696;11.950;2023-05-15T11:06:37;12.17;;;3.87;;
13014;SDS011;6573;57.696;11.950;2023-05-15T11:12:02;7.17;;;3.43;;
13014;SDS011;6573;57.696;11.950;2023-05-15T11:14:33;4.60;;;3.07;;
13014;SDS011;6573;57.696;11.950;2023-05-15T11:17:07;7.43;;;3.43;;
13014;SDS011;6573;57.696;11.950;2023-05-15T11:22:28;8.77;;;3.60;;
13014;SDS011;6573;57.696;11.950;2023-05-15T11:24:59;6.37;;;3.63;;
13014;SDS011;6573;57.696;11.950;2023-05-15T11:27:32;5.33;;;3.33;;
13014;SDS011;6573;57.696;11.950;2023-05-15T11:30:10;4.27;;;2.97;;
13014;SDS011;6573;57.696;11.950;2023-05-15T11:32:46;5.37;;;3.30;;
13014;SDS011;6573;57.696;11.950;2023-05-15T11:35:21;5.30;;;3.07;;
13014;SDS011;6573;57.696;11.950;2023-05-15T11:37:52;9.40;;;3.30;;
13014;SDS011;6573;57.696;11.950;2023-05-15T11:40:22;6.23;;;3.30;;
13014;SDS011;6573;57.696;11.950;2023-05-15T11:42:59;4.47;;;3.40;;
13014;SDS011;6573;57.696;11.950;2023-05-15T11:45:32;4.37;;;3.20;;
13014;SDS011;6573;57.696;11.950;2023-05-15T11:48:03;6.80;;;3.43;;
13014;SDS011;6573;57.696;11.950;2023-05-15T11:50:34;5.13;;;3.40;;
13014;SDS011;6573;57.696;11.950;2023-05-15T11:53:03;6.33;;;3.20;;
13014;SDS011;6573;57.696;11.950;2023-05-15T11:55:33;3.73;;;2.73;;
13014;SDS011;6573;57.696;11.950;2023-05-15T11:58:03;4.60;;;3.40;;
13014;SDS011;6573;57.696;11.950;2023-05-15T12:00:32;4.23;;;3.20;;
13014;SDS011;6573;57.696;11.950;2023-05-15T12:03:02;10.80;;;3.13;;
13014;SDS011;6573;57.696;11.950;2023-05-15T12:05:31;5.20;;;3.00;;
13014;SDS011;6573;57.696;11.950;2023-05-15T12:08:02;3.67;;;2.80;;
13014;SDS011;6573;57.696;11.950;2023-05-15T12:10:33;8.03;;;3.30;;
13014;SDS011;6573;57.696;11.950;2023-05-15T12:13:11;7.13;;;3.53;;
13014;SDS011;6573;57.696;11.950;2023-05-15T12:15:41;7.87;;;3.17;;
13014;SDS011;6573;57.696;11.950;2023-05-15T12:18:13;5.80;;;2.80;;
13014;SDS011;6573;57.696;11.950;2023-05-15T12:20:41;5.00;;;2.87;;
13014;SDS011;6573;57.696;11.950;2023-05-15T12:23:13;4.97;;;2.73;;
13014;SDS011;6573;57.696;11.950;2023-05-15T12:25:43;6.10;;;2.93;;
13014;SDS011;6573;57.696;11.950;2023-05-15T12:28:14;4.70;;;2.90;;
13014;SDS011;6573;57.696;11.950;2023-05-15T12:30:43;5.60;;;3.00;;
13014;SDS011;6573;57.696;11.950;2023-05-15T12:33:13;7.83;;;3.10;;
13014;SDS011;6573;57.696;11.950;2023-05-15T12:35:43;4.40;;;2.77;;
13014;SDS011;6573;57.696;11.950;2023-05-15T12:38:17;5.77;;;2.63;;
13014;SDS011;6573;57.696;11.950;2023-05-15T12:40:50;2.93;;;2.30;;
13014;SDS011;6573;57.696;11.950;2023-05-15T12:43:22;3.40;;;2.23;;
13014;SDS011;6573;57.696;11.950;2023-05-15T12:45:51;6.37;;;2.30;;
13014;SDS011;6573;57.696;11.950;2023-05-15T12:48:29;5.50;;;2.30;;
13014;SDS011;6573;57.696;11.950;2023-05-15T12:51:03;3.70;;;2.47;;
13014;SDS011;6573;57.696;11.950;2023-05-15T12:53:33;5.30;;;2.60;;
13014;SDS011;6573;57.696;11.950;2023-05-15T12:56:05;5.37;;;2.40;;
13014;SDS011;6573;57.696;11.950;2023-05-15T12:58:35;2.83;;;2.40;;
13014;SDS011;6573;57.696;11.950;2023-05-15T13:01:03;5.43;;;2.93;;
13014;SDS011;6573;57.696;11.950;2023-05-15T13:03:33;8.13;;;2.67;;
13014;SDS011;6573;57.696;11.950;2023-05-15T13:06:03;6.47;;;2.60;;
13014;SDS011;6573;57.696;11.950;2023-05-15T13:08:37;5.53;;;2.60;;
13014;SDS011;6573;57.696;11.950;2023-05-15T13:11:09;6.00;;;2.93;;
13014;SDS011;6573;57.696;11.950;2023-05-15T13:13:43;4.40;;;2.50;;
13014;SDS011;6573;57.696;11.950;2023-05-15T13:16:18;4.07;;;2.60;;
13014;SDS011;6573;57.696;11.950;2023-05-15T13:18:49;3.17;;;2.60;;
13014;SDS011;6573;57.696;11.950;2023-05-15T13:21:18;10.30;;;2.87;;
13014;SDS011;6573;57.696;11.950;2023-05-15T13:23:46;5.33;;;2.40;;
13014;SDS011;6573;57.696;11.950;2023-05-15T13:26:15;7.50;;;2.80;;
13014;SDS011;6573;57.696;11.950;2023-05-15T13:28:43;8.77;;;2.57;;
13014;SDS011;6573;57.696;11.950;2023-05-15T13:31:12;8.60;;;2.70;;
13014;SDS011;6573;57.696;11.950;2023-05-15T13:33:40;4.87;;;2.63;;
13014;SDS011;6573;57.696;11.950;2023-05-15T13:36:10;3.40;;;2.50;;
13014;SDS011;6573;57.696;11.950;2023-05-15T13:38:39;9.20;;;2.90;;
13014;SDS011;6573;57.696;11.950;2023-05-15T13:41:07;7.00;;;2.80;;
13014;SDS011;6573;57.696;11.950;2023-05-15T13:43:36;4.70;;;2.60;;
13014;SDS011;6573;57.696;11.950;2023-05-15T13:46:04;4.13;;;2.67;;
13014;SDS011;6573;57.696;11.950;2023-05-15T13:48:33;4.03;;;2.37;;
13014;SDS011;6573;57.696;11.950;2023-05-15T13:51:01;5.30;;;2.70;;
13014;SDS011;6573;57.696;11.950;2023-05-15T13:53:31;3.37;;;2.70;;
13014;SDS011;6573;57.696;11.950;2023-05-15T13:56:01;6.50;;;3.20;;
13014;SDS011;6573;57.696;11.950;2023-05-15T13:58:30;5.27;;;2.67;;
13014;SDS011;6573;57.696;11.950;2023-05-15T14:00:58;3.73;;;2.70;;
13014;SDS011;6573;57.696;11.950;2023-05-15T14:03:29;3.60;;;2.47;;
13014;SDS011;6573;57.696;11.950;2023-05-15T14:06:01;7.43;;;3.07;;
13014;SDS011;6573;57.696;11.950;2023-05-15T14:08:29;8.83;;;2.80;;
13014;SDS011;6573;57.696;11.950;2023-05-15T14:11:02;6.67;;;2.73;;
13014;SDS011;6573;57.696;11.950;2023-05-15T14:13:32;3.03;;;2.60;;
13014;SDS011;6573;57.696;11.950;2023-05-15T14:16:00;7.83;;;2.60;;
13014;SDS011;6573;57.696;11.950;2023-05-15T14:18:29;6.53;;;2.93;;
13014;SDS011;6573;57.696;11.950;2023-05-15T14:20:57;5.53;;;3.00;;
13014;SDS011;6573;57.696;11.950;2023-05-15T14:23:28;4.60;;;2.40;;
13014;SDS011;6573;57.696;11.950;2023-05-15T14:25:57;5.17;;;2.80;;
13014;SDS011;6573;57.696;11.950;2023-05-15T14:28:27;5.23;;;2.70;;
13014;SDS011;6573;57.696;11.950;2023-05-15T14:30:55;7.03;;;2.93;;
13014;SDS011;6573;57.696;11.950;2023-05-15T14:33:24;5.03;;;2.80;;
13014;SDS011;6573;57.696;11.950;2023-05-15T14:35:53;5.80;;;3.20;;
13014;SDS011;6573;57.696;11.950;2023-05-15T14:38:22;8.07;;;2.60;;
13014;SDS011;6573;57.696;11.950;2023-05-15T14:40:50;9.07;;;3.10;;
13014;SDS011;6573;57.696;11.950;2023-05-15T14:43:21;5.40;;;2.70;;
13014;SDS011;6573;57.696;11.950;2023-05-15T14:45:51;7.03;;;2.73;;
13014;SDS011;6573;57.696;11.950;2023-05-15T14:48:20;11.83;;;3.20;;
13014;SDS011;6573;57.696;11.950;2023-05-15T14:50:49;6.90;;;2.83;;
13014;SDS011;6573;57.696;11.950;2023-05-15T14:53:18;8.53;;;3.33;;
13014;SDS011;6573;57.696;11.950;2023-05-15T14:55:47;7.27;;;3.10;;
13014;SDS011;6573;57.696;11.950;2023-05-15T14:58:18;5.77;;;2.93;;
13014;SDS011;6573;57.696;11.950;2023-05-15T15:00:46;7.13;;;2.93;;
13014;SDS011;6573;57.696;11.950;2023-05-15T15:03:16;6.43;;;2.77;;
13014;SDS011;6573;57.696;11.950;2023-05-15T15:05:47;6.83;;;2.80;;
13014;SDS011;6573;57.696;11.950;2023-05-15T15:08:17;11.10;;;2.63;;
13014;SDS011;6573;57.696;11.950;2023-05-15T15:10:46;8.90;;;2.50;;